sensor_id;sensor_type;location;lat;lon;timestamp;P1;durP1;ratioP1;P2;durP2;ratioP2
23732;SDS011;12047;53.450;-2.286;2023-08-06T00:04:01;8.85;;;4.95;;
23732;SDS011;12047;53.450;-2.286;2023-08-06T00:09:02;7.82;;;4.70;;
23732;SDS011;12047;53.450;-2.286;2023-08-06T00:14:02;6.18;;;4.25;;
23732;SDS011;12047;53.450;-2.286;2023-08-06T00:19:03;9.70;;;4.00;;
23732;SDS011;12047;53.450;-2.286;2023-08-06T00:24:03;6.15;;;3.83;;
23732;SDS011;12047;53.450;-2.286;2023-08-06T00:29:03;7.40;;;4.10;;
23732;SDS011;12047;53.450;-2.286;2023-08-06T00:34:04;10.73;;;4.90;;
23732;SDS011;12047;53.450;-2.286;2023-08-06T00:39:04;6.32;;;3.55;;
23732;SDS011;12047;53.450;-2.286;2023-08-06T00:44:07;7.53;;;4.95;;
23732;SDS011;12047;53.450;-2.286;2023-08-06T00:49:07;9.10;;;5.53;;
23732;SDS011;12047;53.450;-2.286;2023-08-06T00:54:08;12.65;;;6.43;;
23732;SDS011;12047;53.450;-2.286;2023-08-06T00:59:09;9.45;;;5.80;;
23732;SDS011;12047;53.450;-2.286;2023-08-06T01:04:11;12.10;;;6.15;;
23732;SDS011;12047;53.450;-2.286;2023-08-06T01:09:57;8.75;;;6.43;;
23732;SDS011;12047;53.450;-2.286;2023-08-06T01:15:08;11.60;;;6.28;;
23732;SDS011;12047;53.450;-2.286;2023-08-06T01:20:14;10.50;;;6.20;;
23732;SDS011;12047;53.450;-2.286;2023-08-06T01:25:15;8.98;;;6.30;;
23732;SDS011;12047;53.450;-2.286;2023-08-06T01:30:18;12.43;;;6.47;;
23732;SDS011;12047;53.450;-2.286;2023-08-06T01:35:22;11.25;;;6.60;;
23732;SDS011;12047;53.450;-2.286;2023-08-06T01:40:23;11.48;;;6.88;;
23732;SDS011;12047;53.450;-2.286;2023-08-06T01:45:25;11.90;;;6.60;;
23732;SDS011;12047;53.450;-2.286;2023-08-06T01:50:25;11.10;;;7.32;;
23732;SDS011;12047;53.450;-2.286;2023-08-06T01:55:26;12.00;;;7.00;;
23732;SDS011;12047;53.450;-2.286;2023-08-06T02:00:26;10.50;;;7.22;;
23732;SDS011;12047;53.450;-2.286;2023-08-06T02:05:28;12.25;;;7.50;;
23732;SDS011;12047;53.450;-2.286;2023-08-06T02:10:29;11.43;;;6.55;;
23732;SDS011;12047;53.450;-2.286;2023-08-06T02:15:29;11.27;;;6.35;;
23732;SDS011;12047;53.450;-2.286;2023-08-06T02:20:30;22.67;;;7.20;;
23732;SDS011;12047;53.450;-2.286;2023-08-06T02:25:30;11.00;;;7.55;;
23732;SDS011;12047;53.450;-2.286;2023-08-06T02:30:31;13.00;;;8.15;;
23732;SDS011;12047;53.450;-2.286;2023-08-06T02:35:31;9.73;;;7.13;;
23732;SDS011;12047;53.450;-2.286;2023-08-06T02:40:31;9.98;;;6.82;;
23732;SDS011;12047;53.450;-2.286;2023-08-06T02:45:32;10.65;;;7.30;;
23732;SDS011;12047;53.450;-2.286;2023-08-06T02:50:39;9.95;;;7.00;;
23732;SDS011;12047;53.450;-2.286;2023-08-06T03:00:46;11.15;;;6.65;;
23732;SDS011;12047;53.450;-2.286;2023-08-06T03:05:53;11.50;;;7.00;;
23732;SDS011;12047;53.450;-2.286;2023-08-06T03:10:54;10.57;;;6.85;;
23732;SDS011;12047;53.450;-2.286;2023-08-06T03:15:55;12.90;;;7.07;;
23732;SDS011;12047;53.450;-2.286;2023-08-06T03:20:57;12.95;;;7.72;;
23732;SDS011;12047;53.450;-2.286;2023-08-06T03:26:01;12.13;;;7.72;;
23732;SDS011;12047;53.450;-2.286;2023-08-06T03:31:04;11.57;;;7.43;;
23732;SDS011;12047;53.450;-2.286;2023-08-06T03:36:05;9.68;;;6.65;;
23732;SDS011;12047;53.450;-2.286;2023-08-06T03:41:06;11.50;;;6.82;;
23732;SDS011;12047;53.450;-2.286;2023-08-06T03:46:06;12.40;;;6.50;;
23732;SDS011;12047;53.450;-2.286;2023-08-06T03:51:06;13.50;;;6.82;;
23732;SDS011;12047;53.450;-2.286;2023-08-06T03:56:07;10.25;;;6.50;;
23732;SDS011;12047;53.450;-2.286;2023-08-06T04:01:08;9.15;;;6.50;;
23732;SDS011;12047;53.450;-2.286;2023-08-06T04:06:08;12.52;;;7.30;;
23732;SDS011;12047;53.450;-2.286;2023-08-06T04:11:09;14.02;;;7.10;;
23732;SDS011;12047;53.450;-2.286;2023-08-06T04:16:09;12.48;;;7.30;;
23732;SDS011;12047;53.450;-2.286;2023-08-06T04:21:10;9.50;;;6.55;;
23732;SDS011;12047;53.450;-2.286;2023-08-06T04:26:10;12.32;;;6.55;;
23732;SDS011;12047;53.450;-2.286;2023-08-06T04:31:11;9.50;;;7.13;;
23732;SDS011;12047;53.450;-2.286;2023-08-06T04:36:11;13.93;;;7.40;;
23732;SDS011;12047;53.450;-2.286;2023-08-06T04:41:11;10.65;;;6.68;;
23732;SDS011;12047;53.450;-2.286;2023-08-06T04:46:12;14.07;;;7.33;;
23732;SDS011;12047;53.450;-2.286;2023-08-06T04:51:12;11.47;;;7.27;;
23732;SDS011;12047;53.450;-2.286;2023-08-06T04:56:13;10.10;;;6.50;;
23732;SDS011;12047;53.450;-2.286;2023-08-06T05:01:13;10.83;;;7.40;;
23732;SDS011;12047;53.450;-2.286;2023-08-06T05:06:14;11.73;;;7.07;;
23732;SDS011;12047;53.450;-2.286;2023-08-06T05:11:14;13.27;;;7.50;;
23732;SDS011;12047;53.450;-2.286;2023-08-06T05:16:15;15.23;;;8.13;;
23732;SDS011;12047;53.450;-2.286;2023-08-06T05:21:15;18.23;;;8.45;;
23732;SDS011;12047;53.450;-2.286;2023-08-06T05:26:16;13.10;;;7.70;;
23732;SDS011;12047;53.450;-2.286;2023-08-06T05:31:18;11.82;;;7.75;;
23732;SDS011;12047;53.450;-2.286;2023-08-06T05:36:19;13.85;;;7.72;;
23732;SDS011;12047;53.450;-2.286;2023-08-06T05:41:19;12.35;;;8.65;;
23732;SDS011;12047;53.450;-2.286;2023-08-06T05:46:20;13.38;;;8.32;;
23732;SDS011;12047;53.450;-2.286;2023-08-06T05:51:20;15.95;;;8.32;;
23732;SDS011;12047;53.450;-2.286;2023-08-06T05:56:20;14.07;;;8.02;;
23732;SDS011;12047;53.450;-2.286;2023-08-06T06:01:21;13.05;;;8.07;;
23732;SDS011;12047;53.450;-2.286;2023-08-06T06:06:22;10.80;;;8.10;;
23732;SDS011;12047;53.450;-2.286;2023-08-06T06:11:22;13.50;;;7.82;;
23732;SDS011;12047;53.450;-2.286;2023-08-06T06:16:22;13.85;;;8.50;;
23732;SDS011;12047;53.450;-2.286;2023-08-06T06:21:23;14.45;;;8.90;;
23732;SDS011;12047;53.450;-2.286;2023-08-06T06:26:24;15.02;;;8.88;;
23732;SDS011;12047;53.450;-2.286;2023-08-06T06:31:24;14.77;;;8.80;;
23732;SDS011;12047;53.450;-2.286;2023-08-06T06:36:25;11.68;;;8.48;;
23732;SDS011;12047;53.450;-2.286;2023-08-06T06:41:25;11.68;;;8.15;;
23732;SDS011;12047;53.450;-2.286;2023-08-06T06:46:26;12.40;;;8.35;;
23732;SDS011;12047;53.450;-2.286;2023-08-06T06:51:27;11.77;;;7.82;;
23732;SDS011;12047;53.450;-2.286;2023-08-06T06:56:27;10.90;;;7.60;;
23732;SDS011;12047;53.450;-2.286;2023-08-06T07:01:27;11.73;;;7.63;;
23732;SDS011;12047;53.450;-2.286;2023-08-06T07:06:28;16.35;;;8.23;;
23732;SDS011;12047;53.450;-2.286;2023-08-06T07:11:28;11.45;;;7.63;;
23732;SDS011;12047;53.450;-2.286;2023-08-06T07:16:29;12.82;;;7.20;;
23732;SDS011;12047;53.450;-2.286;2023-08-06T07:21:30;11.45;;;7.65;;
23732;SDS011;12047;53.450;-2.286;2023-08-06T07:26:30;9.95;;;6.95;;
23732;SDS011;12047;53.450;-2.286;2023-08-06T07:31:31;10.65;;;6.22;;
23732;SDS011;12047;53.450;-2.286;2023-08-06T07:36:31;12.98;;;6.25;;
23732;SDS011;12047;53.450;-2.286;2023-08-06T07:41:32;8.60;;;6.50;;
23732;SDS011;12047;53.450;-2.286;2023-08-06T07:46:33;13.20;;;7.03;;
23732;SDS011;12047;53.450;-2.286;2023-08-06T07:51:33;9.27;;;6.20;;
23732;SDS011;12047;53.450;-2.286;2023-08-06T07:56:34;11.60;;;6.43;;
23732;SDS011;12047;53.450;-2.286;2023-08-06T08:01:36;10.05;;;5.47;;
23732;SDS011;12047;53.450;-2.286;2023-08-06T08:06:37;6.20;;;4.90;;
23732;SDS011;12047;53.450;-2.286;2023-08-06T08:11:37;7.40;;;4.22;;
23732;SDS011;12047;53.450;-2.286;2023-08-06T08:16:38;7.07;;;4.28;;
23732;SDS011;12047;53.450;-2.286;2023-08-06T08:21:38;6.50;;;4.53;;
23732;SDS011;12047;53.450;-2.286;2023-08-06T08:26:38;6.03;;;4.15;;
23732;SDS011;12047;53.450;-2.286;2023-08-06T08:31:39;7.40;;;4.28;;
23732;SDS011;12047;53.450;-2.286;2023-08-06T08:36:39;6.28;;;3.30;;
23732;SDS011;12047;53.450;-2.286;2023-08-06T08:41:40;6.67;;;3.60;;
23732;SDS011;12047;53.450;-2.286;2023-08-06T08:46:42;4.18;;;3.38;;
23732;SDS011;12047;53.450;-2.286;2023-08-06T08:51:44;4.50;;;3.00;;
23732;SDS011;12047;53.450;-2.286;2023-08-06T08:56:46;3.58;;;2.67;;
23732;SDS011;12047;53.450;-2.286;2023-08-06T09:01:46;5.65;;;3.38;;
23732;SDS011;12047;53.450;-2.286;2023-08-06T09:06:51;3.47;;;2.40;;
23732;SDS011;12047;53.450;-2.286;2023-08-06T09:11:55;4.95;;;2.40;;
23732;SDS011;12047;53.450;-2.286;2023-08-06T09:17:06;4.63;;;2.70;;
23732;SDS011;12047;53.450;-2.286;2023-08-06T09:22:06;3.38;;;2.38;;
23732;SDS011;12047;53.450;-2.286;2023-08-06T09:27:13;4.82;;;2.70;;
23732;SDS011;12047;53.450;-2.286;2023-08-06T09:32:15;3.70;;;2.63;;
23732;SDS011;12047;53.450;-2.286;2023-08-06T09:37:15;2.88;;;2.00;;
23732;SDS011;12047;53.450;-2.286;2023-08-06T09:42:16;3.30;;;2.40;;
23732;SDS011;12047;53.450;-2.286;2023-08-06T09:47:16;3.65;;;2.10;;
23732;SDS011;12047;53.450;-2.286;2023-08-06T09:52:18;4.40;;;2.40;;
23732;SDS011;12047;53.450;-2.286;2023-08-06T09:57:19;3.58;;;2.47;;
23732;SDS011;12047;53.450;-2.286;2023-08-06T10:02:20;3.90;;;2.33;;
23732;SDS011;12047;53.450;-2.286;2023-08-06T10:07:26;5.22;;;2.95;;
23732;SDS011;12047;53.450;-2.286;2023-08-06T10:12:28;4.32;;;2.80;;
23732;SDS011;12047;53.450;-2.286;2023-08-06T10:17:32;3.88;;;2.67;;
23732;SDS011;12047;53.450;-2.286;2023-08-06T10:22:34;3.75;;;2.63;;
23732;SDS011;12047;53.450;-2.286;2023-08-06T10:27:35;4.07;;;2.30;;
23732;SDS011;12047;53.450;-2.286;2023-08-06T10:32:47;3.70;;;2.75;;
23732;SDS011;12047;53.450;-2.286;2023-08-06T10:37:50;7.78;;;2.70;;
23732;SDS011;12047;53.450;-2.286;2023-08-06T10:42:51;4.85;;;2.88;;
23732;SDS011;12047;53.450;-2.286;2023-08-06T10:47:51;5.00;;;2.65;;
23732;SDS011;12047;53.450;-2.286;2023-08-06T10:52:52;4.15;;;2.80;;
23732;SDS011;12047;53.450;-2.286;2023-08-06T10:57:53;3.38;;;2.22;;
23732;SDS011;12047;53.450;-2.286;2023-08-06T11:02:55;4.05;;;2.30;;
23732;SDS011;12047;53.450;-2.286;2023-08-06T11:07:56;4.63;;;2.80;;
23732;SDS011;12047;53.450;-2.286;2023-08-06T11:13:00;4.85;;;2.80;;
23732;SDS011;12047;53.450;-2.286;2023-08-06T11:18:02;4.70;;;2.60;;
23732;SDS011;12047;53.450;-2.286;2023-08-06T11:23:03;5.90;;;2.75;;
23732;SDS011;12047;53.450;-2.286;2023-08-06T11:28:04;4.03;;;2.42;;
23732;SDS011;12047;53.450;-2.286;2023-08-06T11:33:06;4.82;;;2.90;;
23732;SDS011;12047;53.450;-2.286;2023-08-06T11:38:09;3.80;;;2.10;;
23732;SDS011;12047;53.450;-2.286;2023-08-06T11:43:10;3.55;;;2.38;;
23732;SDS011;12047;53.450;-2.286;2023-08-06T11:48:11;5.22;;;2.70;;
23732;SDS011;12047;53.450;-2.286;2023-08-06T11:53:14;2.88;;;2.10;;
23732;SDS011;12047;53.450;-2.286;2023-08-06T11:58:16;4.47;;;2.20;;
23732;SDS011;12047;53.450;-2.286;2023-08-06T12:03:18;2.95;;;2.03;;
23732;SDS011;12047;53.450;-2.286;2023-08-06T12:08:19;2.92;;;2.10;;
23732;SDS011;12047;53.450;-2.286;2023-08-06T12:13:19;3.00;;;2.27;;
23732;SDS011;12047;53.450;-2.286;2023-08-06T12:18:20;2.55;;;2.00;;
23732;SDS011;12047;53.450;-2.286;2023-08-06T12:23:21;2.45;;;2.00;;
23732;SDS011;12047;53.450;-2.286;2023-08-06T12:28:21;4.03;;;1.80;;
23732;SDS011;12047;53.450;-2.286;2023-08-06T12:33:21;3.33;;;1.83;;
23732;SDS011;12047;53.450;-2.286;2023-08-06T12:38:22;2.83;;;1.55;;
23732;SDS011;12047;53.450;-2.286;2023-08-06T12:43:22;1.97;;;1.73;;
23732;SDS011;12047;53.450;-2.286;2023-08-06T12:48:23;2.53;;;1.87;;
23732;SDS011;12047;53.450;-2.286;2023-08-06T12:53:23;2.30;;;1.50;;
23732;SDS011;12047;53.450;-2.286;2023-08-06T12:58:23;2.77;;;1.70;;
23732;SDS011;12047;53.450;-2.286;2023-08-06T13:03:24;2.97;;;1.50;;
23732;SDS011;12047;53.450;-2.286;2023-08-06T13:08:24;3.42;;;1.60;;
23732;SDS011;12047;53.450;-2.286;2023-08-06T13:13:25;5.30;;;1.67;;
23732;SDS011;12047;53.450;-2.286;2023-08-06T13:18:27;1.75;;;1.38;;
23732;SDS011;12047;53.450;-2.286;2023-08-06T13:23:29;3.78;;;1.95;;
23732;SDS011;12047;53.450;-2.286;2023-08-06T13:28:29;3.53;;;2.00;;
23732;SDS011;12047;53.450;-2.286;2023-08-06T13:33:30;5.03;;;2.25;;
23732;SDS011;12047;53.450;-2.286;2023-08-06T13:38:30;6.72;;;2.40;;
23732;SDS011;12047;53.450;-2.286;2023-08-06T13:43:31;3.15;;;1.90;;
23732;SDS011;12047;53.450;-2.286;2023-08-06T13:48:31;3.08;;;1.67;;
23732;SDS011;12047;53.450;-2.286;2023-08-06T13:53:32;5.65;;;1.88;;
23732;SDS011;12047;53.450;-2.286;2023-08-06T13:58:32;3.60;;;1.60;;
23732;SDS011;12047;53.450;-2.286;2023-08-06T14:03:33;3.50;;;2.10;;
23732;SDS011;12047;53.450;-2.286;2023-08-06T14:08:34;2.47;;;1.63;;
23732;SDS011;12047;53.450;-2.286;2023-08-06T14:13:36;2.60;;;1.67;;
23732;SDS011;12047;53.450;-2.286;2023-08-06T14:18:36;3.35;;;1.58;;
23732;SDS011;12047;53.450;-2.286;2023-08-06T14:23:38;3.15;;;1.80;;
23732;SDS011;12047;53.450;-2.286;2023-08-06T14:28:41;2.22;;;1.65;;
23732;SDS011;12047;53.450;-2.286;2023-08-06T14:33:41;3.97;;;1.70;;
23732;SDS011;12047;53.450;-2.286;2023-08-06T14:38:42;2.93;;;1.70;;
23732;SDS011;12047;53.450;-2.286;2023-08-06T14:43:42;3.10;;;1.85;;
23732;SDS011;12047;53.450;-2.286;2023-08-06T14:48:43;2.35;;;1.85;;
23732;SDS011;12047;53.450;-2.286;2023-08-06T14:53:43;4.72;;;1.73;;
23732;SDS011;12047;53.450;-2.286;2023-08-06T14:58:44;1.87;;;1.07;;
23732;SDS011;12047;53.450;-2.286;2023-08-06T15:03:44;3.67;;;1.20;;
23732;SDS011;12047;53.450;-2.286;2023-08-06T15:08:45;1.60;;;1.13;;
23732;SDS011;12047;53.450;-2.286;2023-08-06T15:13:47;4.20;;;1.10;;
23732;SDS011;12047;53.450;-2.286;2023-08-06T15:18:47;2.00;;;1.25;;
23732;SDS011;12047;53.450;-2.286;2023-08-06T15:23:48;1.98;;;1.00;;
23732;SDS011;12047;53.450;-2.286;2023-08-06T15:28:49;2.22;;;0.95;;
23732;SDS011;12047;53.450;-2.286;2023-08-06T15:33:49;2.60;;;0.90;;
23732;SDS011;12047;53.450;-2.286;2023-08-06T15:38:50;1.60;;;0.83;;
23732;SDS011;12047;53.450;-2.286;2023-08-06T15:43:50;2.33;;;1.10;;
23732;SDS011;12047;53.450;-2.286;2023-08-06T15:48:50;4.00;;;1.10;;
23732;SDS011;12047;53.450;-2.286;2023-08-06T15:53:51;2.53;;;1.50;;
23732;SDS011;12047;53.450;-2.286;2023-08-06T15:58:51;5.95;;;3.33;;
23732;SDS011;12047;53.450;-2.286;2023-08-06T16:03:52;4.38;;;3.75;;
23732;SDS011;12047;53.450;-2.286;2023-08-06T16:08:52;3.47;;;1.47;;
23732;SDS011;12047;53.450;-2.286;2023-08-06T16:13:52;3.00;;;2.43;;
23732;SDS011;12047;53.450;-2.286;2023-08-06T16:18:53;1.37;;;1.07;;
23732;SDS011;12047;53.450;-2.286;2023-08-06T16:23:53;1.53;;;0.97;;
23732;SDS011;12047;53.450;-2.286;2023-08-06T16:28:54;1.65;;;1.25;;
23732;SDS011;12047;53.450;-2.286;2023-08-06T16:33:54;3.78;;;1.35;;
23732;SDS011;12047;53.450;-2.286;2023-08-06T16:38:55;0.82;;;0.77;;
23732;SDS011;12047;53.450;-2.286;2023-08-06T16:43:56;1.85;;;1.10;;
23732;SDS011;12047;53.450;-2.286;2023-08-06T16:48:57;3.28;;;1.38;;
23732;SDS011;12047;53.450;-2.286;2023-08-06T16:53:57;1.87;;;1.00;;
23732;SDS011;12047;53.450;-2.286;2023-08-06T16:58:59;1.97;;;1.00;;
23732;SDS011;12047;53.450;-2.286;2023-08-06T17:04:00;1.77;;;1.00;;
23732;SDS011;12047;53.450;-2.286;2023-08-06T17:09:01;5.80;;;1.52;;
23732;SDS011;12047;53.450;-2.286;2023-08-06T17:14:03;2.42;;;1.30;;
23732;SDS011;12047;53.450;-2.286;2023-08-06T17:19:03;2.40;;;1.30;;
23732;SDS011;12047;53.450;-2.286;2023-08-06T17:24:04;2.38;;;0.93;;
23732;SDS011;12047;53.450;-2.286;2023-08-06T17:29:05;3.13;;;1.30;;
23732;SDS011;12047;53.450;-2.286;2023-08-06T17:34:05;2.17;;;0.90;;
23732;SDS011;12047;53.450;-2.286;2023-08-06T17:39:05;2.27;;;1.50;;
23732;SDS011;12047;53.450;-2.286;2023-08-06T17:44:06;1.63;;;1.13;;
23732;SDS011;12047;53.450;-2.286;2023-08-06T17:49:06;3.33;;;1.42;;
23732;SDS011;12047;53.450;-2.286;2023-08-06T17:54:07;2.70;;;1.40;;
23732;SDS011;12047;53.450;-2.286;2023-08-06T17:59:07;3.60;;;1.20;;
23732;SDS011;12047;53.450;-2.286;2023-08-06T18:04:07;2.58;;;1.70;;
23732;SDS011;12047;53.450;-2.286;2023-08-06T18:09:08;1.70;;;1.40;;
23732;SDS011;12047;53.450;-2.286;2023-08-06T18:14:09;4.10;;;1.90;;
23732;SDS011;12047;53.450;-2.286;2023-08-06T18:19:09;6.15;;;1.33;;
23732;SDS011;12047;53.450;-2.286;2023-08-06T18:24:10;3.20;;;1.70;;
23732;SDS011;12047;53.450;-2.286;2023-08-06T18:29:10;3.90;;;1.95;;
23732;SDS011;12047;53.450;-2.286;2023-08-06T18:34:11;2.60;;;1.40;;
23732;SDS011;12047;53.450;-2.286;2023-08-06T18:39:11;2.70;;;1.57;;
23732;SDS011;12047;53.450;-2.286;2023-08-06T18:44:12;3.05;;;1.48;;
23732;SDS011;12047;53.450;-2.286;2023-08-06T18:49:12;2.88;;;1.60;;
23732;SDS011;12047;53.450;-2.286;2023-08-06T18:54:14;2.63;;;1.67;;
23732;SDS011;12047;53.450;-2.286;2023-08-06T18:59:15;5.88;;;1.77;;
23732;SDS011;12047;53.450;-2.286;2023-08-06T19:04:20;6.57;;;1.50;;
23732;SDS011;12047;53.450;-2.286;2023-08-06T19:09:20;6.45;;;1.73;;
23732;SDS011;12047;53.450;-2.286;2023-08-06T19:14:21;5.57;;;1.95;;
23732;SDS011;12047;53.450;-2.286;2023-08-06T19:19:21;4.75;;;1.90;;
23732;SDS011;12047;53.450;-2.286;2023-08-06T19:24:22;4.00;;;2.15;;
23732;SDS011;12047;53.450;-2.286;2023-08-06T19:29:22;3.35;;;1.80;;
23732;SDS011;12047;53.450;-2.286;2023-08-06T19:34:23;6.75;;;2.00;;
23732;SDS011;12047;53.450;-2.286;2023-08-06T19:39:23;6.15;;;1.90;;
23732;SDS011;12047;53.450;-2.286;2023-08-06T19:44:25;4.40;;;2.42;;
23732;SDS011;12047;53.450;-2.286;2023-08-06T19:49:25;5.07;;;2.00;;
23732;SDS011;12047;53.450;-2.286;2023-08-06T19:54:26;5.68;;;2.03;;
23732;SDS011;12047;53.450;-2.286;2023-08-06T19:59:26;3.80;;;1.70;;
23732;SDS011;12047;53.450;-2.286;2023-08-06T20:04:27;9.00;;;2.50;;
23732;SDS011;12047;53.450;-2.286;2023-08-06T20:09:27;6.93;;;2.35;;
23732;SDS011;12047;53.450;-2.286;2023-08-06T20:14:28;4.25;;;2.35;;
23732;SDS011;12047;53.450;-2.286;2023-08-06T20:19:28;6.40;;;3.08;;
23732;SDS011;12047;53.450;-2.286;2023-08-06T20:24:29;3.80;;;2.22;;
23732;SDS011;12047;53.450;-2.286;2023-08-06T20:29:29;4.32;;;2.20;;
23732;SDS011;12047;53.450;-2.286;2023-08-06T20:34:30;4.65;;;2.17;;
23732;SDS011;12047;53.450;-2.286;2023-08-06T20:39:30;6.03;;;2.08;;
23732;SDS011;12047;53.450;-2.286;2023-08-06T20:44:30;5.03;;;2.30;;
23732;SDS011;12047;53.450;-2.286;2023-08-06T20:49:34;9.07;;;2.70;;
23732;SDS011;12047;53.450;-2.286;2023-08-06T20:54:35;9.05;;;3.35;;
23732;SDS011;12047;53.450;-2.286;2023-08-06T20:59:35;4.63;;;2.70;;
23732;SDS011;12047;53.450;-2.286;2023-08-06T21:04:35;9.57;;;2.83;;
23732;SDS011;12047;53.450;-2.286;2023-08-06T21:09:36;8.55;;;3.33;;
23732;SDS011;12047;53.450;-2.286;2023-08-06T21:14:36;5.65;;;2.53;;
23732;SDS011;12047;53.450;-2.286;2023-08-06T21:19:37;3.72;;;2.30;;
23732;SDS011;12047;53.450;-2.286;2023-08-06T21:24:37;4.43;;;2.80;;
23732;SDS011;12047;53.450;-2.286;2023-08-06T21:29:38;7.20;;;2.70;;
23732;SDS011;12047;53.450;-2.286;2023-08-06T21:34:41;6.22;;;2.90;;
23732;SDS011;12047;53.450;-2.286;2023-08-06T21:39:41;6.70;;;2.72;;
23732;SDS011;12047;53.450;-2.286;2023-08-06T21:44:42;6.85;;;2.67;;
23732;SDS011;12047;53.450;-2.286;2023-08-06T21:49:42;8.27;;;3.03;;
23732;SDS011;12047;53.450;-2.286;2023-08-06T21:54:43;6.00;;;2.90;;
23732;SDS011;12047;53.450;-2.286;2023-08-06T21:59:43;5.77;;;2.80;;
23732;SDS011;12047;53.450;-2.286;2023-08-06T22:04:44;10.32;;;3.20;;
23732;SDS011;12047;53.450;-2.286;2023-08-06T22:09:44;11.35;;;3.08;;
23732;SDS011;12047;53.450;-2.286;2023-08-06T22:14:45;9.23;;;3.50;;
23732;SDS011;12047;53.450;-2.286;2023-08-06T22:19:45;7.70;;;3.00;;
23732;SDS011;12047;53.450;-2.286;2023-08-06T22:24:46;10.80;;;3.40;;
23732;SDS011;12047;53.450;-2.286;2023-08-06T22:29:46;7.10;;;3.15;;
23732;SDS011;12047;53.450;-2.286;2023-08-06T22:34:47;10.45;;;3.15;;
23732;SDS011;12047;53.450;-2.286;2023-08-06T22:39:47;6.77;;;3.17;;
23732;SDS011;12047;53.450;-2.286;2023-08-06T22:44:47;5.85;;;3.22;;
23732;SDS011;12047;53.450;-2.286;2023-08-06T22:49:48;11.85;;;3.53;;
23732;SDS011;12047;53.450;-2.286;2023-08-06T22:54:48;11.48;;;3.53;;
23732;SDS011;12047;53.450;-2.286;2023-08-06T22:59:49;4.90;;;2.83;;
23732;SDS011;12047;53.450;-2.286;2023-08-06T23:04:49;4.60;;;3.00;;
23732;SDS011;12047;53.450;-2.286;2023-08-06T23:09:50;6.45;;;3.13;;
23732;SDS011;12047;53.450;-2.286;2023-08-06T23:14:50;4.80;;;2.83;;
23732;SDS011;12047;53.450;-2.286;2023-08-06T23:19:51;11.70;;;3.10;;
23732;SDS011;12047;53.450;-2.286;2023-08-06T23:24:51;5.82;;;2.90;;
23732;SDS011;12047;53.450;-2.286;2023-08-06T23:29:52;6.68;;;3.35;;
23732;SDS011;12047;53.450;-2.286;2023-08-06T23:34:52;7.68;;;3.30;;
23732;SDS011;12047;53.450;-2.286;2023-08-06T23:39:52;6.07;;;3.28;;
23732;SDS011;12047;53.450;-2.286;2023-08-06T23:44:55;5.70;;;3.38;;
23732;SDS011;12047;53.450;-2.286;2023-08-06T23:49:55;13.45;;;5.18;;
23732;SDS011;12047;53.450;-2.286;2023-08-06T23:54:56;11.40;;;3.97;;
23732;SDS011;12047;53.450;-2.286;2023-08-06T23:59:56;8.13;;;3.97;;
